createdAt,value
2023-01-21T00:01:09.814Z,14.10
2023-01-21T00:03:37.009Z,11.10
2023-01-21T00:06:04.738Z,11.10
2023-01-21T00:08:32.215Z,14.00
2023-01-21T00:11:06.637Z,11.30
2023-01-21T00:13:35.918Z,10.10
2023-01-21T00:16:04.297Z,11.70
2023-01-21T00:18:31.929Z,9.90
2023-01-21T00:21:00.069Z,9.40
2023-01-21T00:23:27.553Z,8.00
2023-01-21T00:25:59.448Z,10.50
2023-01-21T00:28:31.701Z,9.40
2023-01-21T00:31:00.179Z,9.20
2023-01-21T00:33:28.427Z,8.70
2023-01-21T00:36:06.699Z,9.40
2023-01-21T00:38:34.735Z,9.70
2023-01-21T00:41:04.746Z,8.00
2023-01-21T00:43:32.417Z,13.40
2023-01-21T00:46:00.016Z,8.00
2023-01-21T00:48:28.670Z,8.30
2023-01-21T00:51:00.788Z,9.90
2023-01-21T00:53:30.950Z,9.40
2023-01-21T00:56:02.451Z,8.60
2023-01-21T00:58:30.811Z,12.80
2023-01-21T01:01:19.389Z,11.10
2023-01-21T01:03:47.871Z,9.30
2023-01-21T01:06:21.110Z,7.00
2023-01-21T01:08:49.942Z,5.90
2023-01-21T01:11:18.351Z,7.80
2023-01-21T01:13:45.517Z,9.70
2023-01-21T01:16:14.637Z,10.50
2023-01-21T01:18:41.928Z,9.00
2023-01-21T01:21:12.806Z,7.50
2023-01-21T01:23:40.284Z,8.80
2023-01-21T01:26:10.141Z,11.40
2023-01-21T01:28:37.376Z,9.00
2023-01-21T01:31:07.401Z,7.70
2023-01-21T01:33:34.948Z,7.50
2023-01-21T01:36:06.481Z,7.90
2023-01-21T01:38:37.694Z,6.70
2023-01-21T01:41:05.464Z,7.20
2023-01-21T01:43:54.507Z,7.50
2023-01-21T01:46:23.299Z,7.70
2023-01-21T01:48:58.247Z,6.10
2023-01-21T01:51:41.170Z,6.50
2023-01-21T01:54:10.160Z,5.90
2023-01-21T01:56:39.012Z,7.60
2023-01-21T01:59:06.135Z,6.00
2023-01-21T02:01:33.506Z,5.90
2023-01-21T02:04:06.622Z,6.00
2023-01-21T02:06:34.925Z,6.10
2023-01-21T02:09:02.101Z,6.90
2023-01-21T02:11:29.186Z,6.30
2023-01-21T02:13:59.522Z,5.10
2023-01-21T02:16:58.521Z,5.40
2023-01-21T02:20:00.850Z,5.80
2023-01-21T02:22:52.343Z,5.70
2023-01-21T02:25:40.792Z,6.10
2023-01-21T02:28:45.681Z,5.80
2023-01-21T02:32:00.581Z,5.60
2023-01-21T02:34:52.690Z,5.70
2023-01-21T02:37:42.702Z,6.60
2023-01-21T02:40:24.237Z,5.50
2023-01-21T02:43:01.963Z,5.20
2023-01-21T02:45:47.902Z,4.60
2023-01-21T02:48:22.707Z,4.70
2023-01-21T02:50:52.232Z,5.00
2023-01-21T02:53:32.903Z,5.00
2023-01-21T02:56:09.588Z,5.50
2023-01-21T02:58:40.247Z,4.70
2023-01-21T03:01:29.026Z,3.90
2023-01-21T03:04:10.387Z,4.20
2023-01-21T03:06:41.458Z,4.40
2023-01-21T03:09:26.364Z,4.90
2023-01-21T03:12:09.429Z,5.50
2023-01-21T03:15:21.234Z,5.20
2023-01-21T03:17:53.697Z,5.60
2023-01-21T03:20:24.415Z,5.20
2023-01-21T03:22:56.918Z,4.80
2023-01-21T03:25:25.428Z,4.00
2023-01-21T03:27:54.734Z,4.80
2023-01-21T03:30:25.742Z,4.20
2023-01-21T03:32:55.968Z,4.40
2023-01-21T03:35:36.227Z,4.50
2023-01-21T03:38:22.983Z,4.80
2023-01-21T03:41:07.746Z,3.90
2023-01-21T03:43:35.463Z,4.50
2023-01-21T03:46:13.357Z,3.80
2023-01-21T03:48:47.451Z,4.10
2023-01-21T03:51:27.609Z,3.70
2023-01-21T03:53:59.320Z,5.20
2023-01-21T03:56:27.289Z,4.30
2023-01-21T03:58:55.076Z,4.30
2023-01-21T04:01:22.418Z,3.40
2023-01-21T04:03:49.802Z,3.50
2023-01-21T04:06:19.692Z,4.10
2023-01-21T04:08:47.598Z,4.90
2023-01-21T04:11:15.182Z,4.00
2023-01-21T04:13:42.870Z,3.10
2023-01-21T04:16:10.154Z,5.30
2023-01-21T04:18:37.692Z,4.40
2023-01-21T04:21:05.019Z,3.80
2023-01-21T04:23:32.241Z,3.40
2023-01-21T04:25:59.466Z,5.60
2023-01-21T04:28:26.770Z,3.50
2023-01-21T04:30:54.009Z,4.90
2023-01-21T04:33:21.257Z,4.90
2023-01-21T04:35:48.455Z,4.90
2023-01-21T04:38:15.991Z,9.30
2023-01-21T04:40:43.215Z,4.90
2023-01-21T04:43:10.428Z,4.50
2023-01-21T04:45:37.669Z,3.80
2023-01-21T04:48:04.974Z,3.90
2023-01-21T04:50:32.177Z,3.40
2023-01-21T04:52:59.401Z,4.30
2023-01-21T04:55:26.732Z,4.80
2023-01-21T04:57:54.012Z,4.60
2023-01-21T05:00:21.440Z,4.50
2023-01-21T05:02:49.695Z,4.30
2023-01-21T05:05:16.973Z,4.50
2023-01-21T05:07:44.128Z,5.20
2023-01-21T05:10:16.730Z,4.70
2023-01-21T05:12:44.624Z,4.50
2023-01-21T05:15:11.983Z,4.80
2023-01-21T05:17:39.164Z,5.30
2023-01-21T05:20:06.824Z,5.60
2023-01-21T05:22:33.999Z,6.00
2023-01-21T05:25:01.141Z,6.50
2023-01-21T05:27:28.727Z,5.70
2023-01-21T05:29:57.178Z,5.50
2023-01-21T05:32:24.720Z,6.50
2023-01-21T05:34:51.920Z,6.50
2023-01-21T05:37:19.098Z,6.40
2023-01-21T05:39:46.297Z,6.80
2023-01-21T05:42:13.501Z,8.00
2023-01-21T05:44:40.674Z,11.40
2023-01-21T05:47:08.912Z,10.40
2023-01-21T05:49:36.156Z,8.20
2023-01-21T05:52:03.515Z,9.90
2023-01-21T05:54:31.664Z,9.50
2023-01-21T05:56:58.809Z,14.00
2023-01-21T05:59:26.012Z,14.20
2023-01-21T06:01:53.193Z,15.40
2023-01-21T06:04:21.834Z,11.90
2023-01-21T06:06:50.969Z,13.10
2023-01-21T06:09:18.121Z,16.50
2023-01-21T06:11:45.202Z,14.50
2023-01-21T06:14:12.636Z,52.20
2023-01-21T06:16:39.798Z,17.80
2023-01-21T06:19:06.955Z,15.70
2023-01-21T06:21:34.053Z,16.90
2023-01-21T06:24:02.583Z,11.50
2023-01-21T06:26:29.800Z,14.70
2023-01-21T06:28:57.325Z,13.20
2023-01-21T06:31:24.633Z,13.40
2023-01-21T06:33:52.137Z,17.80
2023-01-21T06:36:19.696Z,14.30
2023-01-21T06:38:46.769Z,15.10
2023-01-21T06:41:13.996Z,16.80
2023-01-21T06:43:41.141Z,20.40
2023-01-21T06:46:08.365Z,17.10
2023-01-21T06:48:35.580Z,19.80
2023-01-21T06:51:03.266Z,15.30
2023-01-21T06:53:30.363Z,25.10
2023-01-21T06:55:57.499Z,21.30
2023-01-21T06:58:24.716Z,16.10
2023-01-21T07:00:51.842Z,28.10
2023-01-21T07:03:19.094Z,33.10
2023-01-21T07:05:46.275Z,14.20
2023-01-21T07:08:13.368Z,9.20
2023-01-21T07:10:40.528Z,10.70
2023-01-21T07:13:07.696Z,9.00
2023-01-21T07:15:34.836Z,8.00
2023-01-21T07:18:02.103Z,8.00
2023-01-21T07:20:29.374Z,10.10
2023-01-21T07:22:56.654Z,9.20
2023-01-21T07:25:24.314Z,8.00
2023-01-21T07:27:51.523Z,12.00
2023-01-21T07:30:20.912Z,12.90
2023-01-21T07:32:48.159Z,14.70
2023-01-21T07:35:15.675Z,8.00
2023-01-21T07:37:43.194Z,12.00
2023-01-21T07:40:11.094Z,10.80
2023-01-21T07:42:38.341Z,15.40
2023-01-21T07:45:05.984Z,16.30
2023-01-21T07:47:33.267Z,12.00
2023-01-21T07:50:05.008Z,12.20
2023-01-21T07:52:32.496Z,12.50
2023-01-21T07:54:59.591Z,10.20
2023-01-21T07:57:26.729Z,8.00
2023-01-21T07:59:54.029Z,9.00
2023-01-21T08:02:21.552Z,7.50
2023-01-21T08:04:48.970Z,8.70
2023-01-21T08:07:16.438Z,8.60
2023-01-21T08:09:43.576Z,6.50
2023-01-21T08:12:11.475Z,6.70
2023-01-21T08:14:41.538Z,6.40
2023-01-21T08:17:08.715Z,5.40
2023-01-21T08:19:35.880Z,10.00
2023-01-21T08:22:03.229Z,6.70
2023-01-21T08:24:30.427Z,7.10
2023-01-21T08:26:59.170Z,7.50
2023-01-21T08:29:27.258Z,5.60
2023-01-21T08:31:54.694Z,6.00
2023-01-21T08:34:21.980Z,5.10
2023-01-21T08:36:49.075Z,7.00
2023-01-21T08:39:16.690Z,4.70
2023-01-21T08:41:44.779Z,5.20
2023-01-21T08:44:12.213Z,5.50
2023-01-21T08:46:39.773Z,6.20
2023-01-21T08:49:06.969Z,6.10
2023-01-21T08:51:34.152Z,8.30
2023-01-21T08:54:01.436Z,11.80
2023-01-21T08:56:28.589Z,7.40
2023-01-21T08:58:58.138Z,5.40
2023-01-21T09:01:26.103Z,4.10
2023-01-21T09:03:57.811Z,7.50
2023-01-21T09:06:26.988Z,11.30
2023-01-21T09:08:54.853Z,18.20
2023-01-21T09:11:23.119Z,9.20
2023-01-21T09:13:50.280Z,7.20
2023-01-21T09:16:22.320Z,7.10
2023-01-21T09:18:49.583Z,6.40
2023-01-21T09:21:17.415Z,9.90
2023-01-21T09:23:44.880Z,8.20
2023-01-21T09:26:17.886Z,10.20
2023-01-21T09:28:47.905Z,9.70
2023-01-21T09:31:16.956Z,8.10
2023-01-21T09:33:46.468Z,9.00
2023-01-21T09:36:19.444Z,10.10
2023-01-21T09:38:48.363Z,11.80
2023-01-21T09:41:35.561Z,4.80
2023-01-21T09:44:29.487Z,8.20
2023-01-21T09:47:33.881Z,5.90
2023-01-21T09:50:08.789Z,19.60
2023-01-21T09:52:46.738Z,10.10
2023-01-21T09:55:33.938Z,7.80
2023-01-21T09:58:03.791Z,6.80
2023-01-21T10:00:58.518Z,7.60
2023-01-21T10:03:33.796Z,9.30
2023-01-21T10:06:23.213Z,7.30
2023-01-21T10:08:50.492Z,6.30
2023-01-21T10:11:26.582Z,8.50
2023-01-21T10:14:32.666Z,36.40
2023-01-21T10:16:59.890Z,18.20
2023-01-21T10:19:35.133Z,25.00
2023-01-21T10:22:09.606Z,8.10
2023-01-21T10:24:46.271Z,12.80
2023-01-21T10:27:18.726Z,13.60
2023-01-21T10:29:50.769Z,7.90
2023-01-21T10:32:24.658Z,5.20
2023-01-21T10:34:57.802Z,9.60
2023-01-21T10:37:45.581Z,7.00
2023-01-21T10:40:43.695Z,6.00
2023-01-21T10:43:22.889Z,6.20
2023-01-21T10:45:59.538Z,5.60
2023-01-21T10:48:37.413Z,5.10
2023-01-21T10:51:13.964Z,8.30
2023-01-21T10:54:03.277Z,8.30
2023-01-21T10:56:36.763Z,7.60
2023-01-21T10:59:09.356Z,6.20
2023-01-21T11:01:40.875Z,8.20
2023-01-21T11:04:13.264Z,8.60
2023-01-21T11:06:41.051Z,10.00
2023-01-21T11:09:13.573Z,7.90
2023-01-21T11:11:43.005Z,8.00
2023-01-21T11:14:10.606Z,8.90
2023-01-21T11:16:38.277Z,7.40
2023-01-21T11:19:07.582Z,5.80
2023-01-21T11:21:34.815Z,8.40
2023-01-21T11:24:05.103Z,6.50
2023-01-21T11:26:36.790Z,11.20
2023-01-21T11:29:07.937Z,12.30
2023-01-21T11:31:35.746Z,14.60
2023-01-21T11:34:17.644Z,5.60
2023-01-21T11:37:00.001Z,8.10
2023-01-21T11:39:40.562Z,9.10
2023-01-21T11:42:18.504Z,9.10
2023-01-21T11:44:53.330Z,17.00
2023-01-21T11:47:27.974Z,29.00
2023-01-21T11:49:55.134Z,28.00
2023-01-21T11:52:22.255Z,24.50
2023-01-21T11:54:49.429Z,17.20
2023-01-21T11:57:26.110Z,9.60
2023-01-21T11:59:57.942Z,11.90
2023-01-21T12:02:31.765Z,11.40
2023-01-21T12:05:12.491Z,9.10
2023-01-21T12:07:42.177Z,14.60
2023-01-21T12:10:12.345Z,8.20
2023-01-21T12:13:06.325Z,10.50
2023-01-21T12:15:57.817Z,30.40
2023-01-21T12:19:07.594Z,28.10
2023-01-21T12:21:47.166Z,42.50
2023-01-21T12:24:46.375Z,30.30
2023-01-21T12:27:33.738Z,15.50
2023-01-21T12:30:23.676Z,13.60
2023-01-21T12:33:04.022Z,17.70
2023-01-21T12:35:41.453Z,16.80
2023-01-21T12:38:17.411Z,10.20
2023-01-21T12:41:09.365Z,10.40
2023-01-21T12:43:41.949Z,6.90
2023-01-21T12:46:29.359Z,13.60
2023-01-21T12:51:49.555Z,7.60
2023-01-21T12:54:25.724Z,6.90
2023-01-21T12:57:05.947Z,8.10
2023-01-21T12:59:46.674Z,7.70
2023-01-21T13:02:34.785Z,7.60
2023-01-21T13:05:13.478Z,6.40
2023-01-21T13:07:47.399Z,3.90
2023-01-21T13:10:14.595Z,6.60
2023-01-21T13:12:46.579Z,10.50
2023-01-21T13:15:19.724Z,16.30
2023-01-21T13:17:55.625Z,20.20
2023-01-21T13:20:23.601Z,11.80
2023-01-21T13:23:12.435Z,9.70
2023-01-21T13:25:45.801Z,10.60
2023-01-21T13:28:29.899Z,5.90
2023-01-21T13:31:09.075Z,8.70
2023-01-21T13:33:54.818Z,13.30
2023-01-21T13:36:46.861Z,8.50
2023-01-21T13:39:21.073Z,9.30
2023-01-21T13:41:48.244Z,9.80
2023-01-21T13:44:27.761Z,16.20
2023-01-21T13:47:02.235Z,10.80
2023-01-21T13:49:48.327Z,9.80
2023-01-21T13:55:11.583Z,5.80
2023-01-21T13:58:05.362Z,7.40
2023-01-21T14:00:32.551Z,5.40
2023-01-21T14:03:31.347Z,4.70
2023-01-21T14:06:32.684Z,7.80
2023-01-21T14:09:14.320Z,8.20
2023-01-21T14:11:53.655Z,9.20
2023-01-21T14:14:46.154Z,6.80
2023-01-21T14:17:51.137Z,8.30
2023-01-21T14:20:18.608Z,12.50
2023-01-21T14:23:20.181Z,7.30
2023-01-21T14:25:50.351Z,6.10
2023-01-21T14:28:51.882Z,6.90
2023-01-21T14:31:33.350Z,8.60
2023-01-21T14:34:19.266Z,9.80
2023-01-21T14:37:18.744Z,11.40
2023-01-21T14:40:03.589Z,9.50
2023-01-21T14:42:44.396Z,8.30
2023-01-21T14:45:14.206Z,5.80
2023-01-21T14:47:45.312Z,5.50
2023-01-21T14:50:46.419Z,6.30
2023-01-21T14:53:19.506Z,4.70
2023-01-21T14:55:46.801Z,6.40
2023-01-21T14:58:22.767Z,6.50
2023-01-21T15:00:51.270Z,7.50
2023-01-21T15:03:30.511Z,7.60
2023-01-21T15:06:02.107Z,5.90
2023-01-21T15:08:46.268Z,8.50
2023-01-21T15:11:26.811Z,6.90
2023-01-21T15:14:13.040Z,7.00
2023-01-21T15:16:42.770Z,18.80
2023-01-21T15:19:09.959Z,21.10
2023-01-21T15:21:42.979Z,16.10
2023-01-21T15:24:23.200Z,19.10
2023-01-21T15:27:15.793Z,16.60
2023-01-21T15:29:55.099Z,16.90
2023-01-21T15:32:33.984Z,15.60
2023-01-21T15:35:03.516Z,14.40
2023-01-21T15:37:36.219Z,15.80
2023-01-21T15:40:16.739Z,16.40
2023-01-21T15:43:05.185Z,12.80
2023-01-21T15:45:56.967Z,16.30
2023-01-21T15:48:45.055Z,10.50
2023-01-21T15:51:24.497Z,16.70
2023-01-21T15:54:06.954Z,20.20
2023-01-21T15:56:49.313Z,14.20
2023-01-21T15:59:31.846Z,12.30
2023-01-21T16:02:21.847Z,10.00
2023-01-21T16:05:07.887Z,11.00
2023-01-21T16:07:47.364Z,20.80
2023-01-21T16:10:33.334Z,13.80
2023-01-21T16:13:10.875Z,10.50
2023-01-21T16:16:10.497Z,12.00
2023-01-21T16:18:59.958Z,17.40
2023-01-21T16:21:34.655Z,36.50
2023-01-21T16:24:07.276Z,17.10
2023-01-21T16:26:34.445Z,13.30
2023-01-21T16:29:01.810Z,12.20
2023-01-21T16:31:29.201Z,10.10
2023-01-21T16:33:56.660Z,13.00
2023-01-21T16:36:23.871Z,8.50
2023-01-21T16:38:51.144Z,9.50
2023-01-21T16:41:24.214Z,11.20
2023-01-21T16:44:04.547Z,13.30
2023-01-21T16:46:38.412Z,10.20
2023-01-21T16:49:15.588Z,15.00
2023-01-21T16:51:56.587Z,11.70
2023-01-21T16:54:29.710Z,17.90
2023-01-21T16:57:19.818Z,17.50
2023-01-21T16:59:50.204Z,21.70
2023-01-21T17:02:27.138Z,40.20
2023-01-21T17:04:57.887Z,19.70
2023-01-21T17:07:27.767Z,37.80
2023-01-21T17:10:30.357Z,21.60
2023-01-21T17:13:01.600Z,20.50
2023-01-21T17:15:36.383Z,14.90
2023-01-21T17:18:06.105Z,52.20
2023-01-21T17:20:46.860Z,19.50
2023-01-21T17:23:28.117Z,26.20
2023-01-21T17:26:00.827Z,21.60
2023-01-21T17:28:41.260Z,27.20
2023-01-21T17:31:19.507Z,33.90
2023-01-21T17:34:01.293Z,11.10
2023-01-21T17:36:34.174Z,10.50
2023-01-21T17:39:02.408Z,9.70
2023-01-21T17:41:34.756Z,14.00
2023-01-21T17:44:05.461Z,17.10
2023-01-21T17:46:33.524Z,15.90
2023-01-21T17:49:08.899Z,11.70
2023-01-21T17:51:36.180Z,12.20
2023-01-21T17:54:05.863Z,11.40
2023-01-21T17:56:50.538Z,11.90
2023-01-21T17:59:38.367Z,11.00
2023-01-21T18:02:11.293Z,14.80
2023-01-21T18:04:39.140Z,13.60
2023-01-21T18:07:30.040Z,10.10
2023-01-21T18:10:02.500Z,11.00
2023-01-21T18:12:29.903Z,8.80
2023-01-21T18:14:57.078Z,9.10
2023-01-21T18:17:25.121Z,11.00
2023-01-21T18:19:52.508Z,12.90
2023-01-21T18:22:30.596Z,21.10
2023-01-21T18:24:58.095Z,9.90
2023-01-21T18:27:26.182Z,9.20
2023-01-21T18:29:54.194Z,9.10
2023-01-21T18:32:21.340Z,9.80
2023-01-21T18:34:48.493Z,8.40
2023-01-21T18:37:18.170Z,8.10
2023-01-21T18:39:46.142Z,8.10
2023-01-21T18:42:18.125Z,9.10
2023-01-21T18:44:45.737Z,10.70
2023-01-21T18:47:14.891Z,10.20
2023-01-21T18:49:42.636Z,12.90
2023-01-21T18:52:11.188Z,13.50
2023-01-21T18:54:38.543Z,15.60
2023-01-21T18:57:10.279Z,15.70
2023-01-21T18:59:37.556Z,16.30
2023-01-21T19:02:16.914Z,12.50
2023-01-21T19:04:44.758Z,11.10
2023-01-21T19:07:16.607Z,11.50
2023-01-21T19:09:46.312Z,12.10
2023-01-21T19:12:14.748Z,13.50
2023-01-21T19:14:42.173Z,11.80
2023-01-21T19:17:12.775Z,12.50
2023-01-21T19:19:40.132Z,11.80
2023-01-21T19:22:12.989Z,8.80
2023-01-21T19:24:40.114Z,9.50
2023-01-21T19:27:14.690Z,7.60
2023-01-21T19:29:41.844Z,11.30
2023-01-21T19:32:14.740Z,7.70
2023-01-21T19:34:42.654Z,11.20
2023-01-21T19:37:21.679Z,15.30
2023-01-21T19:39:48.841Z,19.70
2023-01-21T19:42:16.446Z,34.30
2023-01-21T19:44:43.666Z,24.70
2023-01-21T19:47:19.119Z,18.00
2023-01-21T19:49:46.725Z,14.70
2023-01-21T19:52:15.021Z,18.80
2023-01-21T19:54:42.214Z,19.00
2023-01-21T19:57:14.427Z,18.20
2023-01-21T19:59:43.790Z,30.80
2023-01-21T20:02:11.801Z,18.70
2023-01-21T20:04:39.222Z,17.50
2023-01-21T20:07:07.409Z,16.60
2023-01-21T20:09:34.631Z,14.90
2023-01-21T20:12:03.486Z,17.20
2023-01-21T20:14:33.693Z,16.90
2023-01-21T20:17:02.535Z,18.20
2023-01-21T20:19:29.784Z,15.90
2023-01-21T20:22:02.672Z,13.70
2023-01-21T20:24:33.635Z,14.30
2023-01-21T20:27:02.551Z,12.50
2023-01-21T20:29:29.698Z,16.20
2023-01-21T20:31:56.991Z,15.70
2023-01-21T20:34:24.288Z,15.20
2023-01-21T20:36:51.997Z,35.90
2023-01-21T20:39:19.740Z,67.00
2023-01-21T20:41:46.946Z,32.60
2023-01-21T20:44:14.063Z,18.30
2023-01-21T20:46:43.442Z,12.90
2023-01-21T20:49:11.116Z,16.00
2023-01-21T20:51:38.333Z,33.00
2023-01-21T20:54:05.479Z,29.40
2023-01-21T20:56:33.481Z,29.50
2023-01-21T20:59:00.931Z,36.50
2023-01-21T21:01:28.939Z,25.40
2023-01-21T21:03:56.088Z,19.40
2023-01-21T21:06:27.274Z,14.40
2023-01-21T21:08:54.835Z,295.20
2023-01-21T21:11:22.148Z,101.10
2023-01-21T21:13:52.541Z,69.40
2023-01-21T21:16:32.093Z,57.40
2023-01-21T21:19:00.762Z,91.80
2023-01-21T21:21:28.254Z,156.90
2023-01-21T21:23:55.375Z,142.70
2023-01-21T21:26:27.120Z,191.40
2023-01-21T21:28:55.102Z,135.30
2023-01-21T21:31:23.308Z,237.80
2023-01-21T21:33:50.896Z,191.60
2023-01-21T21:36:20.911Z,161.90
2023-01-21T21:38:49.491Z,124.20
2023-01-21T21:41:38.070Z,62.60
2023-01-21T21:44:06.541Z,42.70
2023-01-21T21:46:52.318Z,28.10
2023-01-21T21:49:19.516Z,21.20
2023-01-21T21:51:46.743Z,39.90
2023-01-21T21:54:16.056Z,15.10
2023-01-21T21:56:43.679Z,9.40
2023-01-21T21:59:12.371Z,9.30
2023-01-21T22:01:42.181Z,10.30
2023-01-21T22:04:09.843Z,8.70
2023-01-21T22:06:37.132Z,8.60
2023-01-21T22:09:05.168Z,7.50
2023-01-21T22:11:32.243Z,7.10
2023-01-21T22:14:04.036Z,8.80
2023-01-21T22:16:32.699Z,7.80
2023-01-21T22:19:00.875Z,7.50
2023-01-21T22:21:32.069Z,11.20
2023-01-21T22:23:59.938Z,9.70
2023-01-21T22:26:28.754Z,10.00
2023-01-21T22:28:56.428Z,11.40
2023-01-21T22:31:26.394Z,14.80
2023-01-21T22:33:54.331Z,9.70
2023-01-21T22:36:24.308Z,9.00
2023-01-21T22:38:52.588Z,5.80
2023-01-21T22:41:22.062Z,6.90
2023-01-21T22:43:49.991Z,6.10
2023-01-21T22:46:21.783Z,6.60
2023-01-21T22:48:49.162Z,6.10
2023-01-21T22:51:19.332Z,5.60
2023-01-21T22:53:46.619Z,6.80
2023-01-21T22:56:15.518Z,11.20
2023-01-21T22:58:42.762Z,47.60
2023-01-21T23:01:27.416Z,16.00
2023-01-21T23:03:54.988Z,24.90
2023-01-21T23:06:22.097Z,11.90
2023-01-21T23:08:49.870Z,9.90
2023-01-21T23:11:19.022Z,21.00
2023-01-21T23:13:47.301Z,24.80
2023-01-21T23:16:16.561Z,14.20
2023-01-21T23:18:43.829Z,21.80
2023-01-21T23:21:16.328Z,18.80
2023-01-21T23:23:44.329Z,10.80
2023-01-21T23:26:12.319Z,13.50
2023-01-21T23:28:39.740Z,12.30
2023-01-21T23:31:10.124Z,15.50
2023-01-21T23:33:37.793Z,11.90
2023-01-21T23:36:05.345Z,30.40
2023-01-21T23:38:32.554Z,14.90
2023-01-21T23:41:05.928Z,8.00
2023-01-21T23:43:33.051Z,10.00
2023-01-21T23:46:00.245Z,8.70
2023-01-21T23:48:27.579Z,7.50
2023-01-21T23:50:54.896Z,8.50
2023-01-21T23:53:22.051Z,8.70
2023-01-21T23:55:49.147Z,9.40
2023-01-21T23:58:16.207Z,7.00
